createdAt,value
2018-09-12T00:01:13.349Z,100933.17
2018-09-12T00:03:41.380Z,100937.88
2018-09-12T00:06:09.399Z,100940.58
2018-09-12T00:08:37.410Z,100938.72
2018-09-12T00:11:05.477Z,100943.42
2018-09-12T00:13:33.496Z,100942.59
2018-09-12T00:16:01.582Z,100937.19
2018-09-12T00:18:29.652Z,100932.63
2018-09-12T00:20:57.779Z,100922.54
2018-09-12T00:23:25.904Z,100930.25
2018-09-12T00:25:53.937Z,100921.14
2018-09-12T00:28:22.256Z,100918.14
2018-09-12T00:30:50.477Z,100914.41
2018-09-12T00:33:18.620Z,100916.72
2018-09-12T00:35:46.724Z,100915.03
2018-09-12T00:38:14.784Z,100920.76
2018-09-12T00:40:42.881Z,100914.64
2018-09-12T00:43:10.900Z,100914.98
2018-09-12T00:45:38.944Z,100915.64
2018-09-12T00:48:06.989Z,100916.98
2018-09-12T00:50:35.107Z,100915.11
2018-09-12T00:53:03.133Z,100913.92
2018-09-12T00:55:31.163Z,100907.76
2018-09-12T00:57:59.175Z,100908.74
2018-09-12T01:00:27.185Z,100908.41
2018-09-12T01:02:55.325Z,100905.69
2018-09-12T01:05:23.496Z,100901.33
2018-09-12T01:07:51.499Z,100901.09
2018-09-12T01:10:19.656Z,100899.84
2018-09-12T01:12:47.705Z,100898.61
2018-09-12T01:15:15.965Z,100898.98
2018-09-12T01:17:44.036Z,100899.48
2018-09-12T01:20:12.133Z,100906.16
2018-09-12T01:22:40.292Z,100908.33
2018-09-12T01:25:08.367Z,100910.47
2018-09-12T01:27:36.417Z,100911.48
2018-09-12T01:30:08.362Z,100909.99
2018-09-12T01:32:36.452Z,100905.64
2018-09-12T01:35:04.649Z,100901.63
2018-09-12T01:37:32.730Z,100905.19
2018-09-12T01:40:00.756Z,100907.72
2018-09-12T01:42:28.854Z,100909.02
2018-09-12T01:44:56.869Z,100910.46
2018-09-12T01:47:24.940Z,100913.99
2018-09-12T01:49:52.964Z,100908.47
2018-09-12T01:52:20.984Z,100910.52
2018-09-12T01:54:49.009Z,100915.15
2018-09-12T01:57:17.020Z,100908.88
2018-09-12T01:59:45.038Z,100910.45
2018-09-12T02:02:13.041Z,100900.75
2018-09-12T02:04:41.080Z,100898.17
2018-09-12T02:07:09.201Z,100905.22
2018-09-12T02:09:37.232Z,100904.53
2018-09-12T02:12:05.237Z,100905.22
2018-09-12T02:14:33.300Z,100903.52
2018-09-12T02:17:01.360Z,100908.19
2018-09-12T02:19:29.432Z,100897.77
2018-09-12T02:21:57.556Z,100901.37
2018-09-12T02:24:25.572Z,100904.16
2018-09-12T02:26:53.621Z,100902.53
2018-09-12T02:29:21.692Z,100901.95
2018-09-12T02:31:49.710Z,100897.48
2018-09-12T02:34:17.820Z,100901.00
2018-09-12T02:36:45.855Z,100894.65
2018-09-12T02:39:14.057Z,100893.45
2018-09-12T02:41:42.114Z,100895.20
2018-09-12T02:44:10.099Z,100890.52
2018-09-12T02:46:38.172Z,100890.25
2018-09-12T02:49:06.214Z,100892.25
2018-09-12T02:51:34.208Z,100892.61
2018-09-12T02:54:02.247Z,100892.55
2018-09-12T02:56:30.305Z,100886.25
2018-09-12T02:58:58.391Z,100880.16
2018-09-12T03:01:26.437Z,100887.95
2018-09-12T03:03:54.530Z,100888.97
2018-09-12T03:06:22.607Z,100881.31
2018-09-12T03:08:50.624Z,100881.64
2018-09-12T03:11:18.710Z,100877.98
2018-09-12T03:13:46.699Z,100866.16
2018-09-12T03:16:14.756Z,100864.16
2018-09-12T03:18:42.869Z,100858.95
2018-09-12T03:21:10.961Z,100857.51
2018-09-12T03:23:38.948Z,100853.98
2018-09-12T03:26:07.057Z,100862.59
2018-09-12T03:28:35.089Z,100859.72
2018-09-12T03:31:03.147Z,100848.61
2018-09-12T03:33:31.239Z,100851.92
2018-09-12T03:35:59.337Z,100847.23
2018-09-12T03:38:27.328Z,100842.60
2018-09-12T03:40:55.403Z,100844.13
2018-09-12T03:43:23.381Z,100839.17
2018-09-12T03:45:51.420Z,100843.23
2018-09-12T03:48:19.459Z,100841.86
2018-09-12T03:50:47.530Z,100833.81
2018-09-12T03:53:15.520Z,100830.95
2018-09-12T03:55:43.588Z,100832.47
2018-09-12T03:58:11.592Z,100831.13
2018-09-12T04:00:39.821Z,100836.80
2018-09-12T04:03:07.874Z,100838.75
2018-09-12T04:05:35.964Z,100835.41
2018-09-12T04:08:04.010Z,100839.31
2018-09-12T04:10:32.208Z,100841.73
2018-09-12T04:13:00.315Z,100843.20
2018-09-12T04:15:28.349Z,100843.76
2018-09-12T04:17:56.338Z,100843.28
2018-09-12T04:20:24.372Z,100842.96
2018-09-12T04:22:52.457Z,100845.08
2018-09-12T04:25:20.541Z,100841.38
2018-09-12T04:27:48.570Z,100838.83
2018-09-12T04:30:16.612Z,100838.29
2018-09-12T04:32:44.628Z,100839.63
2018-09-12T04:35:12.671Z,100843.98
2018-09-12T04:37:40.786Z,100844.20
2018-09-12T04:40:08.820Z,100845.95
2018-09-12T04:42:36.851Z,100842.29
2018-09-12T04:45:04.897Z,100849.84
2018-09-12T04:47:32.873Z,100851.47
2018-09-12T04:50:00.976Z,100852.23
2018-09-12T04:52:28.994Z,100849.95
2018-09-12T04:54:57.013Z,100856.66
2018-09-12T04:57:25.013Z,100863.27
2018-09-12T04:59:53.093Z,100866.25
2018-09-12T05:02:21.095Z,100860.89
2018-09-12T05:04:49.177Z,100863.02
2018-09-12T05:07:17.229Z,100868.44
2018-09-12T05:09:45.288Z,100869.72
2018-09-12T05:12:13.336Z,100873.14
2018-09-12T05:14:41.369Z,100874.13
2018-09-12T05:17:09.425Z,100870.66
2018-09-12T05:19:37.476Z,100874.48
2018-09-12T05:22:05.745Z,100881.86
2018-09-12T05:24:33.751Z,100878.77
2018-09-12T05:27:02.910Z,100882.66
2018-09-12T05:29:30.995Z,100883.81
2018-09-12T05:31:59.041Z,100895.66
2018-09-12T05:34:27.100Z,100900.09
2018-09-12T05:36:55.128Z,100899.78
2018-09-12T05:39:23.237Z,100902.95
2018-09-12T05:41:51.261Z,100898.55
2018-09-12T05:44:19.261Z,100913.13
2018-09-12T05:46:47.296Z,100909.45
2018-09-12T05:49:15.316Z,100901.39
2018-09-12T05:51:43.460Z,100905.94
2018-09-12T05:54:11.489Z,100908.61
2018-09-12T05:56:39.515Z,100903.27
2018-09-12T05:59:07.553Z,100901.44
2018-09-12T06:01:35.592Z,100914.09
2018-09-12T06:04:03.665Z,100905.55
2018-09-12T06:06:31.721Z,100904.61
2018-09-12T06:08:59.703Z,100900.76
2018-09-12T06:11:27.789Z,100904.51
2018-09-12T06:13:55.839Z,100907.41
2018-09-12T06:16:23.852Z,100901.46
2018-09-12T06:18:52.088Z,100900.39
2018-09-12T06:21:20.176Z,100897.50
2018-09-12T06:23:48.265Z,100895.74
2018-09-12T06:26:16.329Z,100895.59
2018-09-12T06:28:44.363Z,100889.04
2018-09-12T06:31:12.400Z,100895.24
2018-09-12T06:33:40.412Z,100900.23
2018-09-12T06:36:08.453Z,100895.19
2018-09-12T06:38:36.676Z,100898.53
2018-09-12T06:41:04.663Z,100901.06
2018-09-12T06:43:32.682Z,100898.22
2018-09-12T06:46:00.701Z,100904.39
2018-09-12T06:48:28.733Z,100917.23
2018-09-12T06:50:56.820Z,100915.56
2018-09-12T06:53:24.866Z,100926.70
2018-09-12T06:55:52.876Z,100924.98
2018-09-12T06:58:20.921Z,100929.25
2018-09-12T07:00:48.957Z,100936.19
2018-09-12T07:03:17.030Z,100937.98
2018-09-12T07:05:45.041Z,100932.65
2018-09-12T07:08:13.058Z,100934.48
2018-09-12T07:10:41.081Z,100923.49
2018-09-12T07:13:09.127Z,100924.83
2018-09-12T07:15:37.168Z,100918.16
2018-09-12T07:18:05.217Z,100901.34
2018-09-12T07:20:33.205Z,100893.77
2018-09-12T07:23:01.243Z,100905.08
2018-09-12T07:25:29.289Z,100911.80
2018-09-12T07:27:57.278Z,100899.62
2018-09-12T07:30:25.325Z,100915.42
2018-09-12T07:32:53.290Z,100922.66
2018-09-12T07:35:21.293Z,100920.06
2018-09-12T07:37:49.353Z,100930.09
2018-09-12T07:40:17.613Z,100936.05
2018-09-12T07:42:45.841Z,100939.81
2018-09-12T07:45:13.861Z,100939.67
2018-09-12T07:47:41.976Z,100944.23
2018-09-12T07:50:09.997Z,100948.28
2018-09-12T07:52:38.036Z,100952.28
2018-09-12T07:55:06.539Z,100949.56
2018-09-12T07:57:34.529Z,100953.22
2018-09-12T08:00:02.663Z,100946.57
2018-09-12T08:02:30.631Z,100946.63
2018-09-12T08:04:58.686Z,100950.03
2018-09-12T08:07:27.572Z,100951.73
2018-09-12T08:09:55.645Z,100968.38
2018-09-12T08:12:23.709Z,100967.02
2018-09-12T08:14:51.716Z,100972.56
2018-09-12T08:17:19.717Z,100975.61
2018-09-12T08:19:47.757Z,100982.13
2018-09-12T08:22:15.949Z,100976.56
2018-09-12T08:24:44.071Z,100978.64
2018-09-12T08:27:12.073Z,100980.05
2018-09-12T08:29:40.384Z,100980.30
2018-09-12T08:32:08.411Z,100987.83
2018-09-12T08:34:36.432Z,100985.51
2018-09-12T08:37:04.481Z,100992.95
2018-09-12T08:39:32.501Z,101011.97
2018-09-12T08:42:00.546Z,101020.80
2018-09-12T08:44:28.790Z,101024.33
2018-09-12T08:46:56.803Z,101025.56
2018-09-12T08:49:24.864Z,101029.45
2018-09-12T08:51:53.077Z,101023.23
2018-09-12T08:54:21.171Z,101021.28
2018-09-12T08:56:49.265Z,101021.01
2018-09-12T08:59:17.264Z,101024.54
2018-09-12T09:01:45.335Z,101018.33
2018-09-12T09:04:13.428Z,101032.52
2018-09-12T09:12:23.209Z,101010.14
2018-09-12T09:14:51.289Z,101025.94
2018-09-12T09:17:19.775Z,101030.28
2018-09-12T09:19:47.845Z,101044.00
2018-09-12T09:22:15.862Z,101051.66
2018-09-12T09:24:43.950Z,101053.64
2018-09-12T09:27:11.989Z,101052.83
2018-09-12T09:29:40.058Z,101064.12
2018-09-12T09:32:08.159Z,101070.52
2018-09-12T09:34:36.198Z,101064.19
2018-09-12T09:37:04.273Z,101071.24
2018-09-12T09:39:32.309Z,101065.17
2018-09-12T09:42:00.469Z,101076.30
2018-09-12T09:44:28.496Z,101080.48
2018-09-12T09:46:56.485Z,101074.12
2018-09-12T09:49:24.585Z,101078.47
2018-09-12T09:51:52.582Z,101070.55
2018-09-12T09:54:20.594Z,101078.93
2018-09-12T09:56:48.589Z,101080.28
2018-09-12T09:59:16.624Z,101072.89
2018-09-12T10:01:50.137Z,101074.57
2018-09-12T10:04:24.383Z,101067.91
2018-09-12T10:06:59.209Z,101069.58
2018-09-12T10:09:34.035Z,101066.71
2018-09-12T10:12:03.418Z,101064.74
2018-09-12T10:14:31.650Z,101057.27
2018-09-12T10:16:59.648Z,101066.16
2018-09-12T10:19:27.950Z,101066.44
2018-09-12T10:21:55.978Z,101067.97
2018-09-12T10:24:24.047Z,101068.78
2018-09-12T10:26:52.006Z,101068.06
2018-09-12T10:29:20.213Z,101064.23
2018-09-12T10:31:48.271Z,101070.83
2018-09-12T10:34:16.289Z,101074.78
2018-09-12T10:36:44.298Z,101084.04
2018-09-12T10:39:13.633Z,101085.02
2018-09-12T10:41:42.512Z,101086.64
2018-09-12T10:44:10.585Z,101098.86
2018-09-12T10:46:38.641Z,101095.13
2018-09-12T10:49:06.984Z,101093.66
2018-09-12T10:51:35.025Z,101100.80
2018-09-12T10:54:03.137Z,101105.33
2018-09-12T10:56:31.246Z,101102.16
2018-09-12T10:58:59.274Z,101100.25
2018-09-12T11:01:27.410Z,101091.93
2018-09-12T11:03:56.240Z,101100.48
2018-09-12T11:06:24.475Z,101104.87
2018-09-12T11:08:52.484Z,101107.55
2018-09-12T11:11:20.596Z,101114.30
2018-09-12T11:13:48.822Z,101119.40
2018-09-12T11:16:16.853Z,101122.45
2018-09-12T11:18:44.885Z,101127.89
2018-09-12T11:21:12.937Z,101130.83
2018-09-12T11:23:40.925Z,101125.30
2018-09-12T11:26:08.946Z,101119.72
2018-09-12T11:28:36.946Z,101114.40
2018-09-12T11:31:06.225Z,101119.53
2018-09-12T11:33:34.373Z,101120.66
2018-09-12T11:36:02.450Z,101132.55
2018-09-12T11:38:30.477Z,101142.69
2018-09-12T11:40:58.487Z,101154.40
2018-09-12T11:43:26.524Z,101151.17
2018-09-12T11:45:54.548Z,101147.92
2018-09-12T11:48:22.677Z,101145.15
2018-09-12T11:50:50.715Z,101151.24
2018-09-12T11:53:18.765Z,101150.11
2018-09-12T11:55:46.872Z,101152.00
2018-09-12T11:58:15.954Z,101168.53
2018-09-12T12:00:43.983Z,101171.36
2018-09-12T12:03:12.007Z,101175.52
2018-09-12T12:05:40.021Z,101176.02
2018-09-12T12:08:08.025Z,101171.43
2018-09-12T12:10:36.091Z,101160.69
2018-09-12T12:13:04.201Z,101171.05
2018-09-12T12:15:32.230Z,101175.67
2018-09-12T12:18:00.332Z,101173.72
2018-09-12T12:20:28.417Z,101172.73
2018-09-12T12:22:56.616Z,101171.09
2018-09-12T12:25:24.650Z,101163.69
2018-09-12T12:27:52.806Z,101160.17
2018-09-12T12:30:22.025Z,101159.07
2018-09-12T12:32:50.300Z,101155.05
2018-09-12T12:35:18.334Z,101166.31
2018-09-12T12:37:46.463Z,101173.88
2018-09-12T12:40:14.562Z,101167.80
2018-09-12T12:42:42.600Z,101166.92
2018-09-12T12:45:10.613Z,101172.79
2018-09-12T12:47:38.626Z,101186.47
2018-09-12T12:50:06.884Z,101193.94
2018-09-12T12:52:34.905Z,101194.10
2018-09-12T12:55:03.138Z,101199.58
2018-09-12T12:57:31.304Z,101199.75
2018-09-12T12:59:59.339Z,101198.63
2018-09-12T13:02:27.469Z,101202.59
2018-09-12T13:04:55.577Z,101207.33
2018-09-12T13:07:23.821Z,101204.13
2018-09-12T13:09:51.862Z,101199.87
2018-09-12T13:12:20.069Z,101210.19
2018-09-12T13:14:48.168Z,101204.95
2018-09-12T13:17:16.153Z,101202.19
2018-09-12T13:19:44.172Z,101198.80
2018-09-12T13:22:12.282Z,101191.00
2018-09-12T13:24:40.319Z,101204.41
2018-09-12T13:27:08.394Z,101207.72
2018-09-12T13:29:36.461Z,101208.94
2018-09-12T13:32:04.496Z,101202.06
2018-09-12T13:34:32.737Z,101207.85
2018-09-12T13:37:00.726Z,101203.09
2018-09-12T13:39:28.785Z,101209.80
2018-09-12T13:41:56.857Z,101211.01
2018-09-12T13:44:25.005Z,101204.51
2018-09-12T13:46:52.961Z,101214.25
2018-09-12T13:49:20.989Z,101213.78
2018-09-12T13:51:48.969Z,101218.23
2018-09-12T13:54:16.969Z,101220.45
2018-09-12T13:56:45.172Z,101210.39
2018-09-12T13:59:13.164Z,101218.20
2018-09-12T14:01:41.282Z,101216.22
2018-09-12T14:04:09.308Z,101217.17
2018-09-12T14:06:37.395Z,101213.89
2018-09-12T14:09:08.675Z,101215.56
2018-09-12T14:11:36.848Z,101216.42
2018-09-12T14:14:04.884Z,101219.48
2018-09-12T14:16:33.074Z,101221.00
2018-09-12T14:19:01.128Z,101209.82
2018-09-12T14:21:29.286Z,101213.39
2018-09-12T14:23:57.432Z,101218.25
2018-09-12T14:26:25.739Z,101213.63
2018-09-12T14:28:53.796Z,101211.95
2018-09-12T14:31:21.897Z,101208.73
2018-09-12T14:33:49.910Z,101206.84
2018-09-12T14:36:18.011Z,101210.82
2018-09-12T14:38:46.004Z,101221.84
2018-09-12T14:41:14.371Z,101219.50
2018-09-12T14:43:42.617Z,101217.03
2018-09-12T14:46:10.700Z,101223.81
2018-09-12T14:48:38.781Z,101229.42
2018-09-12T14:51:07.229Z,101232.28
2018-09-12T14:53:35.317Z,101241.04
2018-09-12T14:56:03.347Z,101239.27
2018-09-12T14:58:31.621Z,101242.88
2018-09-12T15:00:59.680Z,101247.66
2018-09-12T15:03:27.741Z,101248.91
2018-09-12T15:05:55.765Z,101246.23
2018-09-12T15:08:24.048Z,101243.03
2018-09-12T15:10:52.307Z,101250.02
2018-09-12T15:13:20.953Z,101254.84
2018-09-12T15:15:49.251Z,101250.98
2018-09-12T15:18:17.284Z,101244.39
2018-09-12T15:20:45.370Z,101244.00
2018-09-12T15:23:13.401Z,101248.69
2018-09-12T15:25:41.552Z,101246.39
2018-09-12T15:28:09.593Z,101241.05
2018-09-12T15:30:37.683Z,101241.17
2018-09-12T15:33:05.851Z,101244.34
2018-09-12T15:35:33.881Z,101242.47
2018-09-12T15:38:01.914Z,101244.58
2018-09-12T15:40:30.036Z,101247.78
2018-09-12T15:42:58.183Z,101246.45
2018-09-12T15:45:26.198Z,101245.11
2018-09-12T15:47:54.436Z,101243.97
2018-09-12T15:50:24.366Z,101249.31
2018-09-12T15:52:52.788Z,101244.88
2018-09-12T15:55:21.099Z,101245.26
2018-09-12T15:57:49.182Z,101247.39
2018-09-12T16:00:17.262Z,101246.23
2018-09-12T16:02:45.292Z,101244.08
2018-09-12T16:05:13.321Z,101243.35
2018-09-12T16:07:41.349Z,101247.02
2018-09-12T16:10:09.586Z,101237.63
2018-09-12T16:12:37.683Z,101238.16
2018-09-12T16:15:05.714Z,101249.12
2018-09-12T16:17:33.683Z,101242.55
2018-09-12T16:20:01.749Z,101245.45
2018-09-12T16:22:29.774Z,101245.33
2018-09-12T16:24:58.885Z,101248.53
2018-09-12T16:27:26.977Z,101258.50
2018-09-12T16:29:55.081Z,101259.91
2018-09-12T16:32:23.179Z,101260.14
2018-09-12T16:34:51.200Z,101258.77
2018-09-12T16:37:19.274Z,101254.01
2018-09-12T16:39:47.302Z,101267.67
2018-09-12T16:42:15.440Z,101264.67
2018-09-12T16:44:43.569Z,101272.33
2018-09-12T16:47:11.609Z,101273.03
2018-09-12T16:49:39.641Z,101275.83
2018-09-12T16:52:07.682Z,101281.60
2018-09-12T16:54:35.700Z,101289.93
2018-09-12T16:57:03.690Z,101295.84
2018-09-12T16:59:31.741Z,101291.88
2018-09-12T17:01:59.841Z,101288.77
2018-09-12T17:04:27.849Z,101294.70
2018-09-12T17:06:57.011Z,101290.30
2018-09-12T17:09:25.007Z,101284.47
2018-09-12T17:11:53.124Z,101286.25
2018-09-12T17:14:21.184Z,101282.67
2018-09-12T17:16:49.282Z,101284.75
2018-09-12T17:19:17.637Z,101280.17
2018-09-12T17:21:46.001Z,101285.57
2018-09-12T17:24:14.028Z,101291.28
2018-09-12T17:26:42.220Z,101303.81
2018-09-12T17:29:10.451Z,101307.78
2018-09-12T17:31:38.444Z,101310.83
2018-09-12T17:34:06.524Z,101318.62
2018-09-12T17:36:34.538Z,101318.42
2018-09-12T17:39:02.597Z,101314.67
2018-09-12T17:41:30.633Z,101321.74
2018-09-12T17:43:58.632Z,101324.16
2018-09-12T17:46:26.705Z,101328.31
2018-09-12T17:48:54.692Z,101332.31
2018-09-12T17:51:22.806Z,101331.69
2018-09-12T17:53:50.851Z,101327.23
2018-09-12T17:56:18.989Z,101327.48
2018-09-12T17:58:46.964Z,101319.97
2018-09-12T18:01:15.095Z,101331.06
2018-09-12T18:03:43.105Z,101330.81
2018-09-12T18:06:11.137Z,101327.78
2018-09-12T18:08:39.232Z,101324.27
2018-09-12T18:11:07.299Z,101318.92
2018-09-12T18:13:35.346Z,101312.37
2018-09-12T18:16:03.424Z,101316.62
2018-09-12T18:18:31.450Z,101310.20
2018-09-12T18:20:59.486Z,101304.49
2018-09-12T18:23:27.534Z,101309.94
2018-09-12T18:25:55.545Z,101304.24
2018-09-12T18:28:23.748Z,101295.61
2018-09-12T18:30:52.121Z,101306.80
2018-09-12T18:33:20.146Z,101312.98
2018-09-12T18:35:48.242Z,101329.88
2018-09-12T18:38:16.261Z,101336.91
2018-09-12T18:40:44.386Z,101348.56
2018-09-12T18:43:12.533Z,101345.27
2018-09-12T18:45:40.793Z,101342.59
2018-09-12T18:48:08.833Z,101338.12
2018-09-12T18:50:37.020Z,101338.59
2018-09-12T18:53:05.147Z,101339.21
2018-09-12T18:55:33.230Z,101336.64
2018-09-12T18:58:01.624Z,101337.11
2018-09-12T19:00:29.769Z,101338.34
2018-09-12T19:02:58.518Z,101334.47
2018-09-12T19:05:27.015Z,101342.95
2018-09-12T19:07:55.268Z,101341.75
2018-09-12T19:10:23.376Z,101342.48
2018-09-12T19:12:51.446Z,101340.77
2018-09-12T19:15:19.544Z,101342.70
2018-09-12T19:17:47.696Z,101349.41
2018-09-12T19:20:15.792Z,101346.38
2018-09-12T19:22:43.784Z,101340.28
2018-09-12T19:25:11.786Z,101342.71
2018-09-12T19:27:39.924Z,101342.36
2018-09-12T19:30:07.980Z,101337.49
2018-09-12T19:32:36.306Z,101329.13
2018-09-12T19:35:04.325Z,101327.31
2018-09-12T19:37:32.661Z,101331.19
2018-09-12T19:40:00.674Z,101333.62
2018-09-12T19:42:28.785Z,101341.27
2018-09-12T19:44:56.783Z,101340.67
2018-09-12T19:47:24.925Z,101346.25
2018-09-12T19:49:54.042Z,101345.64
2018-09-12T19:52:22.156Z,101342.45
2018-09-12T19:54:50.357Z,101339.18
2018-09-12T19:57:18.371Z,101332.75
2018-09-12T19:59:46.545Z,101331.64
2018-09-12T20:02:25.160Z,101336.38
2018-09-12T20:04:53.245Z,101336.48
2018-09-12T20:07:21.466Z,101336.73
2018-09-12T20:09:50.010Z,101344.27
2018-09-12T20:12:18.040Z,101346.34
2018-09-12T20:14:47.951Z,101358.50
2018-09-12T20:17:15.920Z,101358.14
2018-09-12T20:19:43.945Z,101363.10
2018-09-12T20:22:11.968Z,101365.08
2018-09-12T20:24:40.332Z,101363.84
2018-09-12T20:27:08.576Z,101360.92
2018-09-12T20:29:36.660Z,101352.55
2018-09-12T20:32:04.721Z,101350.50
2018-09-12T20:34:33.082Z,101355.82
2018-09-12T20:37:01.233Z,101358.38
2018-09-12T20:39:29.342Z,101362.50
2018-09-12T20:41:57.400Z,101359.84
2018-09-12T20:44:25.773Z,101350.60
2018-09-12T20:46:53.877Z,101342.83
2018-09-12T20:49:21.982Z,101346.59
2018-09-12T20:51:50.229Z,101350.49
2018-09-12T20:54:18.272Z,101355.84
2018-09-12T20:56:47.148Z,101350.27
2018-09-12T20:59:15.230Z,101349.03
2018-09-12T21:01:43.276Z,101337.27
2018-09-12T21:04:11.285Z,101341.76
2018-09-12T21:06:39.358Z,101341.13
2018-09-12T21:09:09.640Z,101335.08
2018-09-12T21:11:37.793Z,101340.30
2018-09-12T21:14:05.969Z,101345.39
2018-09-12T21:16:34.013Z,101349.16
2018-09-12T21:19:02.128Z,101349.16
2018-09-12T21:21:30.134Z,101349.64
2018-09-12T21:23:58.593Z,101355.70
2018-09-12T21:26:26.884Z,101350.98
2018-09-12T21:28:55.046Z,101347.47
2018-09-12T21:31:24.417Z,101350.25
2018-09-12T21:33:53.026Z,101354.14
2018-09-12T21:36:21.360Z,101350.14
2018-09-12T21:38:49.403Z,101347.70
2018-09-12T21:41:17.412Z,101344.29
2018-09-12T21:43:45.483Z,101344.29
2018-09-12T21:46:13.620Z,101346.02
2018-09-12T21:48:41.784Z,101355.60
2018-09-12T21:51:09.972Z,101360.92
2018-09-12T21:53:38.264Z,101357.41
2018-09-12T21:56:06.368Z,101348.55
2018-09-12T21:58:34.421Z,101343.45
2018-09-12T22:01:02.517Z,101338.72
2018-09-12T22:03:30.808Z,101333.02
2018-09-12T22:05:58.873Z,101332.55
2018-09-12T22:08:26.889Z,101340.91
2018-09-12T22:10:54.932Z,101343.44
2018-09-12T22:13:23.075Z,101344.66
2018-09-12T22:15:51.124Z,101350.50
2018-09-12T22:18:19.179Z,101351.70
2018-09-12T22:20:47.224Z,101351.34
2018-09-12T22:23:15.344Z,101346.50
2018-09-12T22:25:43.351Z,101347.20
2018-09-12T22:28:11.374Z,101354.02
2018-09-12T22:30:39.356Z,101353.27
2018-09-12T22:33:07.372Z,101355.48
2018-09-12T22:35:35.460Z,101353.66
2018-09-12T22:38:03.460Z,101356.08
2018-09-12T22:40:31.541Z,101356.69
2018-09-12T22:42:59.591Z,101353.42
2018-09-12T22:45:27.592Z,101353.52
2018-09-12T22:47:55.609Z,101363.83
2018-09-12T22:50:23.692Z,101368.32
2018-09-12T22:52:51.712Z,101372.82
2018-09-12T22:55:19.912Z,101375.95
2018-09-12T22:57:47.960Z,101384.45
2018-09-12T23:00:16.992Z,101384.34
2018-09-12T23:02:45.004Z,101383.95
2018-09-12T23:05:13.032Z,101372.08
2018-09-12T23:07:41.042Z,101360.17
2018-09-12T23:10:09.180Z,101363.44
2018-09-12T23:12:37.176Z,101364.67
2018-09-12T23:15:05.327Z,101365.02
2018-09-12T23:17:33.320Z,101359.58
2018-09-12T23:20:01.357Z,101367.80
2018-09-12T23:22:29.359Z,101379.59
2018-09-12T23:24:57.554Z,101373.88
2018-09-12T23:27:25.596Z,101371.94
2018-09-12T23:29:53.745Z,101362.42
2018-09-12T23:32:21.765Z,101361.27
2018-09-12T23:34:49.767Z,101357.50
2018-09-12T23:37:17.768Z,101354.84
2018-09-12T23:39:45.884Z,101352.17
2018-09-12T23:42:13.901Z,101352.27
2018-09-12T23:44:41.941Z,101352.23
2018-09-12T23:47:09.966Z,101352.48
2018-09-12T23:49:38.030Z,101346.30
2018-09-12T23:52:06.116Z,101339.38
2018-09-12T23:54:34.117Z,101339.23
2018-09-12T23:57:02.184Z,101343.00
2018-09-12T23:59:30.222Z,101344.23
